createdAt,value
2022-08-16T00:00:35.692Z,20.2
2022-08-16T00:01:51.000Z,20.1
2022-08-16T00:03:07.015Z,20.1
2022-08-16T00:04:22.000Z,20.1
2022-08-16T00:05:39.286Z,20.1
2022-08-16T00:06:55.000Z,20.1
2022-08-16T00:08:11.000Z,20
2022-08-16T00:09:27.000Z,20
2022-08-16T00:10:43.000Z,20
2022-08-16T00:12:00.029Z,20
2022-08-16T00:13:15.000Z,20
2022-08-16T00:14:32.305Z,20
2022-08-16T00:15:48.000Z,20
2022-08-16T00:17:04.000Z,20
2022-08-16T00:18:20.000Z,20
2022-08-16T00:19:35.000Z,20
2022-08-16T00:20:51.000Z,20
2022-08-16T00:22:08.188Z,20
2022-08-16T00:23:24.000Z,20
2022-08-16T00:24:40.000Z,19.9
2022-08-16T00:25:56.000Z,19.9
2022-08-16T00:27:12.000Z,19.9
2022-08-16T00:28:28.000Z,19.9
2022-08-16T00:29:45.062Z,19.9
2022-08-16T00:31:00.000Z,19.8
2022-08-16T00:32:17.350Z,19.8
2022-08-16T00:33:33.000Z,19.8
2022-08-16T00:34:49.000Z,19.8
2022-08-16T00:36:04.000Z,19.8
2022-08-16T00:37:20.000Z,19.8
2022-08-16T00:38:36.000Z,19.7
2022-08-16T00:39:53.000Z,19.7
2022-08-16T00:41:09.000Z,19.7
2022-08-16T00:42:25.000Z,19.7
2022-08-16T00:43:41.000Z,19.7
2022-08-16T00:44:57.000Z,19.7
2022-08-16T00:46:13.972Z,19.7
2022-08-16T00:47:29.000Z,19.7
2022-08-16T00:48:46.000Z,19.7
2022-08-16T00:50:02.000Z,19.7
2022-08-16T00:51:18.546Z,19.7
2022-08-16T00:52:33.000Z,19.6
2022-08-16T00:53:49.000Z,19.6
2022-08-16T00:55:05.000Z,19.6
2022-08-16T00:56:22.143Z,19.6
2022-08-16T00:57:38.000Z,19.6
2022-08-16T00:58:54.000Z,19.6
2022-08-16T01:00:10.000Z,19.6
2022-08-16T01:01:26.000Z,19.6
2022-08-16T01:02:42.000Z,19.6
2022-08-16T01:03:58.000Z,19.5
2022-08-16T01:05:15.165Z,19.5
2022-08-16T01:06:31.000Z,19.5
2022-08-16T01:07:47.445Z,19.5
2022-08-16T01:09:02.000Z,19.5
2022-08-16T01:10:18.750Z,19.5
2022-08-16T01:11:34.000Z,19.5
2022-08-16T01:12:50.000Z,19.4
2022-08-16T01:14:06.000Z,19.4
2022-08-16T01:15:23.368Z,19.4
2022-08-16T01:16:39.000Z,19.4
2022-08-16T01:17:55.628Z,19.4
2022-08-16T01:19:11.769Z,19.4
2022-08-16T01:20:27.000Z,19.4
2022-08-16T01:21:43.000Z,19.4
2022-08-16T01:22:59.000Z,19.4
2022-08-16T01:24:16.000Z,19.4
2022-08-16T01:25:31.523Z,19.4
2022-08-16T01:26:47.673Z,19.3
2022-08-16T01:28:03.807Z,19.3
2022-08-16T01:29:19.000Z,19.3
2022-08-16T01:30:35.000Z,19.3
2022-08-16T01:31:52.255Z,19.4
2022-08-16T01:33:08.400Z,19.4
2022-08-16T01:34:24.000Z,19.4
2022-08-16T01:35:40.000Z,19.4
2022-08-16T01:36:56.000Z,19.4
2022-08-16T01:38:12.000Z,19.4
2022-08-16T01:39:28.000Z,19.5
2022-08-16T01:40:45.266Z,19.5
2022-08-16T01:42:00.000Z,19.5
2022-08-16T01:43:16.000Z,19.5
2022-08-16T01:44:32.000Z,19.6
2022-08-16T01:45:48.859Z,19.6
2022-08-16T01:47:04.000Z,19.6
2022-08-16T01:48:20.000Z,19.6
2022-08-16T01:49:36.000Z,19.7
2022-08-16T01:50:52.000Z,19.7
2022-08-16T01:52:08.000Z,19.8
2022-08-16T01:53:24.755Z,19.8
2022-08-16T01:54:40.000Z,19.9
2022-08-16T01:55:56.000Z,19.9
2022-08-16T01:57:13.195Z,19.9
2022-08-16T01:58:29.000Z,20
2022-08-16T01:59:45.482Z,20
2022-08-16T02:01:01.000Z,20
2022-08-16T02:02:17.782Z,20.1
2022-08-16T02:03:33.000Z,20.1
2022-08-16T02:04:49.000Z,20.1
2022-08-16T02:06:05.000Z,20.2
2022-08-16T02:07:21.000Z,20.2
2022-08-16T02:08:37.520Z,20.2
2022-08-16T02:09:53.664Z,20.2
2022-08-16T02:11:09.000Z,20.2
2022-08-16T02:12:25.000Z,20.2
2022-08-16T02:13:41.000Z,20.2
2022-08-16T02:14:58.000Z,20.2
2022-08-16T02:16:14.000Z,20.2
2022-08-16T02:17:30.536Z,20.2
2022-08-16T02:18:46.681Z,20.2
2022-08-16T02:20:02.000Z,20.2
2022-08-16T02:21:18.976Z,20.2
2022-08-16T02:22:33.000Z,20.2
2022-08-16T02:23:50.279Z,20.2
2022-08-16T02:25:06.000Z,20.2
2022-08-16T02:26:22.000Z,20.2
2022-08-16T02:27:38.717Z,20.2
2022-08-16T02:28:54.000Z,20.2
2022-08-16T02:30:10.000Z,20.2
2022-08-16T02:31:26.000Z,20.2
2022-08-16T02:32:43.000Z,20.2
2022-08-16T02:33:59.000Z,20.2
2022-08-16T02:35:15.589Z,20.2
2022-08-16T02:36:31.000Z,20.2
2022-08-16T02:37:47.000Z,20.2
2022-08-16T02:39:02.000Z,20.2
2022-08-16T02:40:19.184Z,20.2
2022-08-16T02:41:35.000Z,20.2
2022-08-16T02:42:51.000Z,20.2
2022-08-16T02:44:07.000Z,20.2
2022-08-16T02:45:23.000Z,20.2
2022-08-16T02:46:39.914Z,20.2
2022-08-16T02:47:55.000Z,20.2
2022-08-16T02:49:11.000Z,20.2
2022-08-16T02:50:28.000Z,20.2
2022-08-16T02:51:44.499Z,20.2
2022-08-16T02:53:00.000Z,20.2
2022-08-16T02:54:16.789Z,20.2
2022-08-16T02:55:31.952Z,20.3
2022-08-16T02:56:48.100Z,20.3
2022-08-16T02:58:04.000Z,20.3
2022-08-16T02:59:20.397Z,20.3
2022-08-16T03:00:36.000Z,20.3
2022-08-16T03:01:52.000Z,20.3
2022-08-16T03:03:08.000Z,20.3
2022-08-16T03:04:24.000Z,20.3
2022-08-16T03:05:41.111Z,20.3
2022-08-16T03:06:57.000Z,20.3
2022-08-16T03:08:13.000Z,20.3
2022-08-16T03:09:29.553Z,20.3
2022-08-16T03:10:45.000Z,20.3
2022-08-16T03:12:00.000Z,20.3
2022-08-16T03:13:16.000Z,20.3
2022-08-16T03:14:32.000Z,20.3
2022-08-16T03:15:49.291Z,20.3
2022-08-16T03:17:05.437Z,20.3
2022-08-16T03:18:21.000Z,20.3
2022-08-16T03:19:37.000Z,20.3
2022-08-16T03:20:53.877Z,20.3
2022-08-16T03:22:09.000Z,20.2
2022-08-16T03:23:25.000Z,20.3
2022-08-16T03:24:42.000Z,20.2
2022-08-16T03:25:58.454Z,20.2
2022-08-16T03:27:14.000Z,20.2
2022-08-16T03:28:29.759Z,20.2
2022-08-16T03:29:45.000Z,20.2
2022-08-16T03:31:01.000Z,20.2
2022-08-16T03:32:17.000Z,20.2
2022-08-16T03:33:34.000Z,20.2
2022-08-16T03:34:50.000Z,20.2
2022-08-16T03:36:06.631Z,20.2
2022-08-16T03:37:22.000Z,20.1
2022-08-16T03:38:38.000Z,20.1
2022-08-16T03:39:54.000Z,20.1
2022-08-16T03:41:10.000Z,20.1
2022-08-16T03:42:27.000Z,20.1
2022-08-16T03:43:43.000Z,20.1
2022-08-16T03:44:58.668Z,20.1
2022-08-16T03:46:14.000Z,20.1
2022-08-16T03:47:30.000Z,20
2022-08-16T03:48:46.000Z,20
2022-08-16T03:50:03.000Z,20
2022-08-16T03:51:19.000Z,20
2022-08-16T03:52:35.000Z,20
2022-08-16T03:53:51.000Z,20
2022-08-16T03:55:07.831Z,20
2022-08-16T03:56:23.000Z,20
2022-08-16T03:57:39.000Z,20
2022-08-16T03:58:56.000Z,20
2022-08-16T04:00:12.000Z,20
2022-08-16T04:01:27.000Z,20
2022-08-16T04:02:43.729Z,20
2022-08-16T04:03:59.000Z,20
2022-08-16T04:05:16.012Z,20
2022-08-16T04:06:31.000Z,20.1
2022-08-16T04:07:48.000Z,20.1
2022-08-16T04:09:04.000Z,20.1
2022-08-16T04:10:20.000Z,20.1
2022-08-16T04:11:36.000Z,20.1
2022-08-16T04:12:52.885Z,20.1
2022-08-16T04:14:09.039Z,20.1
2022-08-16T04:15:24.000Z,20.1
2022-08-16T04:16:41.000Z,20.2
2022-08-16T04:17:56.000Z,20.2
2022-08-16T04:19:12.000Z,20.2
2022-08-16T04:20:28.769Z,20.2
2022-08-16T04:21:44.000Z,20.2
2022-08-16T04:23:01.071Z,20.2
2022-08-16T04:24:16.000Z,20.3
2022-08-16T04:25:33.000Z,20.3
2022-08-16T04:26:49.000Z,20.3
2022-08-16T04:28:05.638Z,20.3
2022-08-16T04:29:21.000Z,20.3
2022-08-16T04:30:37.937Z,20.4
2022-08-16T04:31:53.000Z,20.4
2022-08-16T04:33:09.000Z,20.4
2022-08-16T04:34:25.387Z,20.4
2022-08-16T04:35:41.000Z,20.4
2022-08-16T04:36:57.000Z,20.5
2022-08-16T04:38:13.828Z,20.5
2022-08-16T04:39:29.973Z,20.5
2022-08-16T04:40:45.000Z,20.5
2022-08-16T04:42:02.000Z,20.5
2022-08-16T04:43:18.000Z,20.6
2022-08-16T04:44:34.000Z,20.6
2022-08-16T04:45:50.000Z,20.6
2022-08-16T04:47:06.000Z,20.6
2022-08-16T04:48:22.987Z,20.7
2022-08-16T04:49:38.000Z,20.7
2022-08-16T04:50:55.000Z,20.7
2022-08-16T04:52:10.000Z,20.7
2022-08-16T04:53:26.583Z,20.7
2022-08-16T04:54:42.732Z,20.8
2022-08-16T04:55:58.000Z,20.8
2022-08-16T04:57:14.000Z,20.8
2022-08-16T04:58:30.000Z,20.8
2022-08-16T04:59:47.311Z,20.8
2022-08-16T05:01:03.000Z,20.9
2022-08-16T05:02:19.000Z,20.9
2022-08-16T05:03:35.000Z,20.9
2022-08-16T05:04:51.000Z,20.9
2022-08-16T05:06:08.040Z,20.9
2022-08-16T05:07:23.000Z,20.9
2022-08-16T05:08:39.000Z,20.9
2022-08-16T05:09:55.000Z,20.9
2022-08-16T05:11:11.000Z,20.9
2022-08-16T05:12:27.780Z,20.9
2022-08-16T05:13:43.000Z,20.9
2022-08-16T05:14:59.000Z,20.9
2022-08-16T05:16:15.000Z,20.9
2022-08-16T05:17:32.000Z,20.9
2022-08-16T05:18:48.509Z,20.9
2022-08-16T05:20:04.000Z,20.9
2022-08-16T05:21:20.795Z,20.9
2022-08-16T05:22:36.949Z,20.9
2022-08-16T05:23:52.000Z,20.8
2022-08-16T05:25:08.000Z,20.8
2022-08-16T05:26:24.000Z,20.8
2022-08-16T05:27:40.000Z,20.8
2022-08-16T05:28:56.000Z,20.8
2022-08-16T05:30:12.835Z,20.8
2022-08-16T05:31:28.975Z,20.8
2022-08-16T05:32:44.000Z,20.8
2022-08-16T05:34:01.000Z,20.8
2022-08-16T05:35:17.000Z,20.8
2022-08-16T05:36:33.000Z,20.8
2022-08-16T05:37:49.000Z,20.8
2022-08-16T05:39:05.000Z,20.8
2022-08-16T05:40:21.000Z,20.8
2022-08-16T05:41:36.000Z,20.8
2022-08-16T05:42:53.297Z,20.8
2022-08-16T05:44:09.000Z,20.9
2022-08-16T05:45:25.000Z,20.9
2022-08-16T05:46:41.000Z,20.9
2022-08-16T05:47:57.000Z,20.9
2022-08-16T05:49:13.000Z,20.9
2022-08-16T05:50:29.000Z,20.9
2022-08-16T05:51:46.311Z,20.9
2022-08-16T05:53:02.000Z,20.9
2022-08-16T05:54:18.000Z,20.9
2022-08-16T05:55:34.000Z,20.9
2022-08-16T05:56:50.000Z,20.9
2022-08-16T05:58:05.000Z,20.9
2022-08-16T05:59:21.000Z,21
2022-08-16T06:00:38.000Z,21
2022-08-16T06:01:54.000Z,21
2022-08-16T06:03:10.645Z,21
2022-08-16T06:04:25.000Z,21
2022-08-16T06:05:41.956Z,21
2022-08-16T06:06:57.000Z,21
2022-08-16T06:08:14.000Z,21
2022-08-16T06:09:30.000Z,21
2022-08-16T06:10:46.533Z,21
2022-08-16T06:12:02.000Z,21
2022-08-16T06:13:18.000Z,21
2022-08-16T06:14:34.000Z,21
2022-08-16T06:15:51.116Z,21
2022-08-16T06:17:07.260Z,21
2022-08-16T06:18:23.000Z,21
2022-08-16T06:19:39.551Z,21
2022-08-16T06:20:54.000Z,21
2022-08-16T06:22:10.000Z,21
2022-08-16T06:23:26.998Z,21
2022-08-16T06:24:42.000Z,21
2022-08-16T06:25:59.000Z,21
2022-08-16T06:27:15.000Z,21.1
2022-08-16T06:28:31.000Z,21.1
2022-08-16T06:29:47.000Z,21.1
2022-08-16T06:31:03.000Z,21.1
2022-08-16T06:32:20.015Z,21.1
2022-08-16T06:33:36.160Z,21.1
2022-08-16T06:34:52.000Z,21.1
2022-08-16T06:36:08.000Z,21.1
2022-08-16T06:37:23.000Z,21.1
2022-08-16T06:38:39.000Z,21.2
2022-08-16T06:39:55.000Z,21.2
2022-08-16T06:41:11.000Z,21.2
2022-08-16T06:42:28.194Z,21.2
2022-08-16T06:43:44.339Z,21.2
2022-08-16T06:45:00.000Z,21.3
2022-08-16T06:46:16.000Z,21.3
2022-08-16T06:47:32.778Z,21.3
2022-08-16T06:48:48.000Z,21.4
2022-08-16T06:50:05.079Z,21.4
2022-08-16T06:51:20.000Z,21.5
2022-08-16T06:52:37.365Z,21.5
2022-08-16T06:53:52.516Z,21.5
2022-08-16T06:55:08.661Z,21.5
2022-08-16T06:56:24.000Z,21.6
2022-08-16T06:57:40.000Z,21.6
2022-08-16T06:58:57.108Z,21.6
2022-08-16T07:00:13.000Z,21.6
2022-08-16T07:01:29.000Z,21.6
2022-08-16T07:02:45.000Z,21.7
2022-08-16T07:04:01.680Z,21.7
2022-08-16T07:05:17.820Z,21.7
2022-08-16T07:06:33.000Z,21.8
2022-08-16T07:07:49.000Z,21.8
2022-08-16T07:09:06.000Z,21.8
2022-08-16T07:10:21.426Z,21.8
2022-08-16T07:11:37.000Z,21.9
2022-08-16T07:12:53.000Z,21.9
2022-08-16T07:14:09.000Z,21.9
2022-08-16T07:15:26.014Z,21.9
2022-08-16T07:16:41.000Z,21.9
2022-08-16T07:17:58.000Z,22
2022-08-16T07:19:14.000Z,22
2022-08-16T07:20:30.000Z,22.1
2022-08-16T07:21:46.000Z,22.1
2022-08-16T07:23:02.000Z,22.2
2022-08-16T07:24:19.021Z,22.2
2022-08-16T07:25:34.000Z,22.3
2022-08-16T07:26:50.000Z,22.4
2022-08-16T07:28:06.000Z,22.5
2022-08-16T07:29:22.000Z,22.6
2022-08-16T07:30:38.000Z,22.7
2022-08-16T07:31:54.910Z,22.8
2022-08-16T07:33:10.000Z,22.9
2022-08-16T07:34:27.196Z,23
2022-08-16T07:35:43.000Z,23
2022-08-16T07:36:59.000Z,23.2
2022-08-16T07:38:15.000Z,23.3
2022-08-16T07:39:31.785Z,23.4
2022-08-16T07:40:47.698Z,23.5
2022-08-16T07:42:03.000Z,23.8
2022-08-16T07:43:19.000Z,24
2022-08-16T07:44:35.000Z,24.2
2022-08-16T07:45:51.524Z,24.3
2022-08-16T07:47:07.669Z,24.4
2022-08-16T07:48:23.810Z,24.5
2022-08-16T07:49:39.000Z,24.5
2022-08-16T07:50:55.000Z,24.6
2022-08-16T07:52:12.000Z,24.6
2022-08-16T07:53:28.000Z,24.6
2022-08-16T07:54:44.540Z,24.6
2022-08-16T07:56:00.690Z,24.6
2022-08-16T07:57:16.000Z,24.7
2022-08-16T07:58:32.978Z,24.7
2022-08-16T07:59:47.000Z,24.7
2022-08-16T08:01:04.286Z,24.7
2022-08-16T08:02:20.429Z,24.7
2022-08-16T08:03:36.576Z,24.6
2022-08-16T08:04:52.717Z,24.6
2022-08-16T08:06:08.000Z,24.6
2022-08-16T08:07:25.011Z,24.6
2022-08-16T08:08:40.000Z,24.7
2022-08-16T08:09:57.000Z,24.7
2022-08-16T08:11:13.449Z,24.7
2022-08-16T08:12:29.000Z,24.8
2022-08-16T08:13:45.506Z,24.9
2022-08-16T08:15:01.000Z,25
2022-08-16T08:16:17.045Z,25.3
2022-08-16T08:17:33.189Z,25.5
2022-08-16T08:18:49.330Z,25.7
2022-08-16T08:20:05.000Z,25.9
2022-08-16T08:21:21.000Z,26.2
2022-08-16T08:22:37.000Z,26.4
2022-08-16T08:23:53.000Z,26.7
2022-08-16T08:25:09.000Z,26.9
2022-08-16T08:26:26.203Z,27.2
2022-08-16T08:27:42.000Z,27.3
2022-08-16T08:28:58.000Z,27.5
2022-08-16T08:30:14.000Z,27.6
2022-08-16T08:31:30.000Z,27.7
2022-08-16T08:32:45.000Z,27.8
2022-08-16T08:34:01.000Z,27.9
2022-08-16T08:35:18.000Z,28
2022-08-16T08:36:34.000Z,28.1
2022-08-16T08:37:50.000Z,28.1
2022-08-16T08:39:06.000Z,28.2
2022-08-16T08:40:22.821Z,28.3
2022-08-16T08:41:38.000Z,28.4
2022-08-16T08:42:54.000Z,28.5
2022-08-16T08:44:11.000Z,28.6
2022-08-16T08:45:27.398Z,29
2022-08-16T08:46:43.000Z,29.2
2022-08-16T08:47:59.000Z,29.4
2022-08-16T08:49:14.000Z,29.7
2022-08-16T08:50:30.000Z,30
2022-08-16T08:51:46.000Z,30.1
2022-08-16T08:53:03.295Z,30.2
2022-08-16T08:54:19.000Z,30.4
2022-08-16T08:55:35.000Z,30.6
2022-08-16T08:56:51.000Z,30.7
2022-08-16T08:58:07.882Z,30.8
2022-08-16T08:59:24.023Z,30.9
2022-08-16T09:00:39.000Z,31.1
2022-08-16T09:01:56.321Z,31.2
2022-08-16T09:03:12.000Z,31.4
2022-08-16T09:04:28.616Z,31.6
2022-08-16T09:05:43.000Z,31.7
2022-08-16T09:06:59.000Z,31.8
2022-08-16T09:08:16.071Z,32
2022-08-16T09:09:32.216Z,32.1
2022-08-16T09:10:48.000Z,32.3
2022-08-16T09:12:04.000Z,32.5
2022-08-16T09:13:20.656Z,32.5
2022-08-16T09:14:36.000Z,32.6
2022-08-16T09:15:52.000Z,32.7
2022-08-16T09:17:08.000Z,32.9
2022-08-16T09:18:25.000Z,33.1
2022-08-16T09:19:41.000Z,33.2
2022-08-16T09:20:57.000Z,33.4
2022-08-16T09:22:12.704Z,33.4
2022-08-16T09:23:28.000Z,33.5
2022-08-16T09:24:44.993Z,33.6
2022-08-16T09:26:00.000Z,33.6
2022-08-16T09:27:17.000Z,33.6
2022-08-16T09:28:33.000Z,33.5
2022-08-16T09:29:49.000Z,33.5
2022-08-16T09:31:05.743Z,33.6
2022-08-16T09:32:21.878Z,33.5
2022-08-16T09:33:37.000Z,33.4
2022-08-16T09:34:54.165Z,33.5
2022-08-16T09:36:10.000Z,33.6
2022-08-16T09:37:26.000Z,33.7
2022-08-16T09:38:41.626Z,33.8
2022-08-16T09:39:57.765Z,33.9
2022-08-16T09:41:13.914Z,34
2022-08-16T09:42:30.065Z,34.1
2022-08-16T09:43:45.000Z,34.2
2022-08-16T09:45:02.000Z,34.3
2022-08-16T09:46:18.000Z,34.4
2022-08-16T09:47:34.000Z,34.2
2022-08-16T09:48:50.801Z,34.1
2022-08-16T09:50:06.941Z,34.2
2022-08-16T09:51:22.000Z,34
2022-08-16T09:52:39.239Z,33.9
2022-08-16T09:53:55.000Z,33.5
2022-08-16T09:55:10.000Z,33.3
2022-08-16T09:56:26.000Z,33
2022-08-16T09:57:42.846Z,32.8
2022-08-16T09:58:58.000Z,32.8
2022-08-16T10:00:14.000Z,32.8
2022-08-16T10:01:31.289Z,33
2022-08-16T10:02:47.000Z,33.2
2022-08-16T10:04:03.000Z,33.2
2022-08-16T10:05:19.723Z,33.3
2022-08-16T10:06:35.000Z,33.4
2022-08-16T10:07:52.016Z,33.4
2022-08-16T10:09:08.162Z,33.6
2022-08-16T10:10:24.306Z,33.5
2022-08-16T10:11:39.000Z,33.7
2022-08-16T10:12:55.623Z,33.8
2022-08-16T10:14:11.000Z,33.9
2022-08-16T10:15:27.000Z,34
2022-08-16T10:16:43.000Z,34.2
2022-08-16T10:17:59.000Z,34.3
2022-08-16T10:19:15.000Z,34.4
2022-08-16T10:20:31.000Z,34.5
2022-08-16T10:21:47.000Z,34.6
2022-08-16T10:23:03.816Z,34.7
2022-08-16T10:24:19.961Z,34.8
2022-08-16T10:25:36.112Z,34.9
2022-08-16T10:26:52.000Z,35
2022-08-16T10:28:08.421Z,34.9
2022-08-16T10:29:24.549Z,34.8
2022-08-16T10:30:40.000Z,34.8
2022-08-16T10:31:56.000Z,34.6
2022-08-16T10:33:12.000Z,34.4
2022-08-16T10:34:28.000Z,34.3
2022-08-16T10:35:44.000Z,34.2
2022-08-16T10:37:00.000Z,34.1
2022-08-16T10:38:16.596Z,34.1
2022-08-16T10:39:32.000Z,34.1
2022-08-16T10:40:48.000Z,34.4
2022-08-16T10:42:04.000Z,34.6
2022-08-16T10:43:21.181Z,34.9
2022-08-16T10:44:37.000Z,35.2
2022-08-16T10:45:53.000Z,35.6
2022-08-16T10:47:09.000Z,35.7
2022-08-16T10:48:25.773Z,35.5
2022-08-16T10:49:41.000Z,35.2
2022-08-16T10:50:58.081Z,35
2022-08-16T10:52:13.000Z,34.7
2022-08-16T10:53:29.000Z,34.5
2022-08-16T10:54:45.521Z,34.4
2022-08-16T10:56:01.000Z,34.3
2022-08-16T10:57:17.822Z,34.2
2022-08-16T10:58:33.963Z,34
2022-08-16T10:59:50.110Z,33.9
2022-08-16T11:01:06.000Z,33.8
2022-08-16T11:02:22.000Z,33.8
2022-08-16T11:03:38.551Z,33.8
2022-08-16T11:04:54.000Z,33.9
2022-08-16T11:06:10.000Z,34.2
2022-08-16T11:07:26.997Z,34.5
2022-08-16T11:08:41.000Z,34.7
2022-08-16T11:09:58.000Z,35
2022-08-16T11:11:14.000Z,35.3
2022-08-16T11:12:30.598Z,35.4
2022-08-16T11:13:46.746Z,35.5
2022-08-16T11:15:02.000Z,35.7
2022-08-16T11:16:19.041Z,35.8
2022-08-16T11:17:35.189Z,35.9
2022-08-16T11:18:51.331Z,35.7
2022-08-16T11:20:07.000Z,35.4
2022-08-16T11:21:23.000Z,35.2
2022-08-16T11:22:39.774Z,35.1
2022-08-16T11:23:55.000Z,35.1
2022-08-16T11:25:10.000Z,35.2
2022-08-16T11:26:27.234Z,35.2
2022-08-16T11:27:43.000Z,35.1
2022-08-16T11:28:59.000Z,35.1
2022-08-16T11:30:15.000Z,35.2
2022-08-16T11:31:31.821Z,35.3
2022-08-16T11:32:47.000Z,35.2
2022-08-16T11:34:04.111Z,35.1
2022-08-16T11:35:20.000Z,34.8
2022-08-16T11:36:36.409Z,34.8
2022-08-16T11:37:52.000Z,34.7
2022-08-16T11:39:08.000Z,34.7
2022-08-16T11:40:24.000Z,34.8
2022-08-16T11:41:39.000Z,34.8
2022-08-16T11:42:56.158Z,34.7
2022-08-16T11:44:12.000Z,34.6
2022-08-16T11:45:28.000Z,34.4
2022-08-16T11:46:44.000Z,34.3
2022-08-16T11:48:00.000Z,34.2
2022-08-16T11:49:16.000Z,34.1
2022-08-16T11:50:32.000Z,33.9
2022-08-16T11:51:48.000Z,34.1
2022-08-16T11:53:05.000Z,34
2022-08-16T11:54:21.000Z,33.9
2022-08-16T11:55:37.000Z,33.8
2022-08-16T11:56:53.000Z,33.7
2022-08-16T11:58:08.941Z,33.5
2022-08-16T11:59:25.085Z,33.3
2022-08-16T12:00:41.000Z,33.2
2022-08-16T12:01:57.000Z,33.1
2022-08-16T12:03:13.000Z,32.9
2022-08-16T12:04:29.000Z,32.8
2022-08-16T12:05:45.000Z,32.9
2022-08-16T12:07:01.000Z,33.2
2022-08-16T12:08:18.116Z,33.5
2022-08-16T12:09:34.261Z,33.8
2022-08-16T12:10:50.000Z,33.7
2022-08-16T12:12:06.558Z,33.7
2022-08-16T12:13:22.000Z,33.6
2022-08-16T12:14:37.000Z,33.5
2022-08-16T12:15:53.000Z,33.4
2022-08-16T12:17:09.000Z,33.2
2022-08-16T12:18:26.000Z,33
2022-08-16T12:19:42.000Z,32.8
2022-08-16T12:20:58.599Z,32.6
2022-08-16T12:22:14.000Z,32.4
2022-08-16T12:23:30.000Z,32.5
2022-08-16T12:24:46.000Z,32.7
2022-08-16T12:26:02.000Z,32.9
2022-08-16T12:27:19.341Z,33
2022-08-16T12:28:35.000Z,33.1
2022-08-16T12:29:51.000Z,33.2
2022-08-16T12:31:06.000Z,33.3
2022-08-16T12:32:22.940Z,33.5
2022-08-16T12:33:38.000Z,33.6
2022-08-16T12:34:55.000Z,33.7
2022-08-16T12:36:11.000Z,33.6
2022-08-16T12:37:27.000Z,33.6
2022-08-16T12:38:43.671Z,33.6
2022-08-16T12:39:59.819Z,33.7
2022-08-16T12:41:15.000Z,33.7
2022-08-16T12:42:31.000Z,33.8
2022-08-16T12:43:48.000Z,33.8
2022-08-16T12:45:04.000Z,33.9
2022-08-16T12:46:20.548Z,33.9
2022-08-16T12:47:35.711Z,33.9
2022-08-16T12:48:51.000Z,33.9
2022-08-16T12:50:08.009Z,33.8
2022-08-16T12:51:23.000Z,33.7
2022-08-16T12:52:40.000Z,33.8
2022-08-16T12:53:56.000Z,33.8
2022-08-16T12:55:12.000Z,33.8
2022-08-16T12:56:28.000Z,33.8
2022-08-16T12:57:44.000Z,33.9
2022-08-16T12:59:01.028Z,34
2022-08-16T13:00:16.000Z,34.1
2022-08-16T13:01:33.328Z,34.1
2022-08-16T13:02:49.000Z,34.1
2022-08-16T13:04:04.636Z,34.1
2022-08-16T13:05:20.000Z,34.2
2022-08-16T13:06:36.000Z,34.3
2022-08-16T13:07:52.000Z,34.3
2022-08-16T13:09:08.000Z,34.3
2022-08-16T13:10:25.000Z,34.4
2022-08-16T13:11:41.000Z,34.6
2022-08-16T13:12:57.000Z,34.5
2022-08-16T13:14:13.000Z,34.4
2022-08-16T13:15:29.958Z,34.5
2022-08-16T13:16:46.106Z,34.5
2022-08-16T13:18:02.000Z,34.6
2022-08-16T13:19:18.000Z,34.7
2022-08-16T13:20:33.000Z,34.8
2022-08-16T13:21:49.717Z,34.8
2022-08-16T13:23:05.000Z,34.9
2022-08-16T13:24:21.000Z,34.8
2022-08-16T13:25:38.153Z,34.8
2022-08-16T13:26:54.000Z,34.8
2022-08-16T13:28:10.000Z,34.8
2022-08-16T13:29:26.000Z,34.7
2022-08-16T13:30:42.000Z,34.7
2022-08-16T13:31:58.000Z,34.6
2022-08-16T13:33:14.000Z,34.6
2022-08-16T13:34:30.000Z,34.6
2022-08-16T13:35:47.342Z,34.6
2022-08-16T13:37:02.493Z,34.6
2022-08-16T13:38:18.000Z,34.5
2022-08-16T13:39:34.000Z,34.5
2022-08-16T13:40:50.000Z,34.4
2022-08-16T13:42:06.000Z,34.4
2022-08-16T13:43:23.000Z,34.4
2022-08-16T13:44:39.000Z,34.4
2022-08-16T13:45:55.000Z,34.3
2022-08-16T13:47:11.000Z,34.3
2022-08-16T13:48:27.000Z,34.3
2022-08-16T13:49:43.000Z,34.3
2022-08-16T13:50:59.000Z,34.3
2022-08-16T13:52:16.000Z,34.3
2022-08-16T13:53:31.000Z,34.2
2022-08-16T13:54:47.000Z,34.2
2022-08-16T13:56:03.000Z,34.1
2022-08-16T13:57:19.882Z,34
2022-08-16T13:58:35.000Z,33.9
2022-08-16T13:59:51.000Z,33.9
2022-08-16T14:01:08.000Z,33.8
2022-08-16T14:02:24.000Z,33.7
2022-08-16T14:03:40.000Z,33.7
2022-08-16T14:04:56.752Z,33.6
2022-08-16T14:06:12.000Z,33.6
2022-08-16T14:07:28.000Z,33.6
2022-08-16T14:08:44.000Z,33.6
2022-08-16T14:10:00.000Z,33.5
2022-08-16T14:11:16.000Z,33.5
2022-08-16T14:12:32.649Z,33.5
2022-08-16T14:13:48.000Z,33.5
2022-08-16T14:15:04.000Z,33.5
2022-08-16T14:16:20.000Z,33.5
2022-08-16T14:17:37.000Z,33.5
2022-08-16T14:18:53.000Z,33.6
2022-08-16T14:20:09.000Z,33.6
2022-08-16T14:21:25.682Z,33.5
2022-08-16T14:22:41.825Z,33.5
2022-08-16T14:23:57.000Z,33.5
2022-08-16T14:25:13.000Z,33.5
2022-08-16T14:26:29.280Z,33.4
2022-08-16T14:27:45.000Z,33.4
2022-08-16T14:29:01.000Z,33.4
2022-08-16T14:30:17.000Z,33.4
2022-08-16T14:31:33.000Z,33.4
2022-08-16T14:32:49.000Z,33.4
2022-08-16T14:34:04.000Z,33.4
2022-08-16T14:35:21.000Z,33.4
2022-08-16T14:36:37.000Z,33.3
2022-08-16T14:37:53.000Z,33.3
2022-08-16T14:39:09.000Z,33.2
2022-08-16T14:40:25.918Z,33.2
2022-08-16T14:41:41.000Z,33.1
2022-08-16T14:42:57.000Z,33.1
2022-08-16T14:44:14.000Z,33
2022-08-16T14:45:30.000Z,32.9
2022-08-16T14:46:46.000Z,32.9
2022-08-16T14:48:02.000Z,32.8
2022-08-16T14:49:18.000Z,32.8
2022-08-16T14:50:33.000Z,32.8
2022-08-16T14:51:50.000Z,32.8
2022-08-16T14:53:06.000Z,32.8
2022-08-16T14:54:22.000Z,32.8
2022-08-16T14:55:38.000Z,32.8
2022-08-16T14:56:54.000Z,32.7
2022-08-16T14:58:10.992Z,32.6
2022-08-16T14:59:26.000Z,32.6
2022-08-16T15:00:43.000Z,32.6
2022-08-16T15:01:59.000Z,32.5
2022-08-16T15:03:15.000Z,32.5
2022-08-16T15:04:31.728Z,32.5
2022-08-16T15:05:47.894Z,32.5
2022-08-16T15:07:02.000Z,32.3
2022-08-16T15:08:18.000Z,32.3
2022-08-16T15:09:35.000Z,32.2
2022-08-16T15:10:51.477Z,32.1
2022-08-16T15:12:07.000Z,32.1
2022-08-16T15:13:23.000Z,32.1
2022-08-16T15:14:39.000Z,32.1
2022-08-16T15:15:56.065Z,32
2022-08-16T15:17:11.000Z,32
2022-08-16T15:18:28.356Z,32
2022-08-16T15:19:44.000Z,32
2022-08-16T15:21:00.655Z,32
2022-08-16T15:22:16.000Z,31.9
2022-08-16T15:23:31.000Z,31.9
2022-08-16T15:24:48.106Z,31.9
2022-08-16T15:26:04.000Z,31.8
2022-08-16T15:27:20.000Z,31.8
2022-08-16T15:28:36.558Z,31.7
2022-08-16T15:29:52.000Z,31.7
2022-08-16T15:31:08.846Z,31.7
2022-08-16T15:32:24.000Z,31.7
2022-08-16T15:33:40.000Z,31.6
2022-08-16T15:34:57.000Z,31.6
2022-08-16T15:36:13.000Z,31.6
2022-08-16T15:37:29.000Z,31.6
2022-08-16T15:38:45.000Z,31.5
2022-08-16T15:40:00.883Z,31.5
2022-08-16T15:41:16.000Z,31.4
2022-08-16T15:42:32.000Z,31.4
2022-08-16T15:43:49.325Z,31.4
2022-08-16T15:45:05.000Z,31.4
2022-08-16T15:46:21.000Z,31.4
2022-08-16T15:47:37.773Z,31.4
2022-08-16T15:48:53.000Z,31.3
2022-08-16T15:50:09.000Z,31.3
2022-08-16T15:51:25.000Z,31.2
2022-08-16T15:52:42.369Z,31.2
2022-08-16T15:53:58.000Z,31.2
2022-08-16T15:55:14.000Z,31.2
2022-08-16T15:56:29.000Z,31.2
2022-08-16T15:57:45.000Z,31.1
2022-08-16T15:59:02.110Z,31.1
2022-08-16T16:00:18.257Z,31.1
2022-08-16T16:01:34.000Z,31
2022-08-16T16:02:50.000Z,31
2022-08-16T16:04:06.000Z,31
2022-08-16T16:05:22.000Z,31
2022-08-16T16:06:38.991Z,30.9
2022-08-16T16:07:54.000Z,30.9
2022-08-16T16:09:11.291Z,30.8
2022-08-16T16:10:27.000Z,30.8
2022-08-16T16:11:43.599Z,30.7
2022-08-16T16:12:58.000Z,30.7
2022-08-16T16:14:14.000Z,30.6
2022-08-16T16:15:30.000Z,30.5
2022-08-16T16:16:46.000Z,30.5
2022-08-16T16:18:03.333Z,30.5
2022-08-16T16:19:19.000Z,30.5
2022-08-16T16:20:35.000Z,30.4
2022-08-16T16:21:51.000Z,30.4
2022-08-16T16:23:07.000Z,30.4
2022-08-16T16:24:23.000Z,30.3
2022-08-16T16:25:40.224Z,30.3
2022-08-16T16:26:56.000Z,30.3
2022-08-16T16:28:12.000Z,30.3
2022-08-16T16:29:27.676Z,30.2
2022-08-16T16:30:43.000Z,30.2
2022-08-16T16:31:59.000Z,30.1
2022-08-16T16:33:15.000Z,30
2022-08-16T16:34:32.000Z,30
2022-08-16T16:35:48.000Z,30
2022-08-16T16:37:04.000Z,29.9
2022-08-16T16:38:20.000Z,29.9
2022-08-16T16:39:36.000Z,29.8
2022-08-16T16:40:52.000Z,29.8
2022-08-16T16:42:08.000Z,29.7
2022-08-16T16:43:25.000Z,29.7
2022-08-16T16:44:41.000Z,29.7
2022-08-16T16:45:56.000Z,29.6
2022-08-16T16:47:12.000Z,29.6
2022-08-16T16:48:28.000Z,29.6
2022-08-16T16:49:44.000Z,29.5
2022-08-16T16:51:00.000Z,29.5
2022-08-16T16:52:17.000Z,29.5
2022-08-16T16:53:33.000Z,29.5
2022-08-16T16:54:49.000Z,29.4
2022-08-16T16:56:05.000Z,29.4
2022-08-16T16:57:21.000Z,29.3
2022-08-16T16:58:37.000Z,29.3
2022-08-16T16:59:54.215Z,29.3